createdAt,value
2019-01-29T00:02:28.084Z,9.20
2019-01-29T00:04:58.387Z,11.07
2019-01-29T00:07:28.944Z,8.37
2019-01-29T00:09:59.384Z,9.17
2019-01-29T00:12:29.778Z,9.63
2019-01-29T00:15:00.245Z,8.43
2019-01-29T00:17:30.733Z,6.17
2019-01-29T00:20:01.158Z,9.93
2019-01-29T00:22:33.472Z,10.30
2019-01-29T00:25:03.964Z,14.43
2019-01-29T00:27:34.442Z,7.87
2019-01-29T00:30:06.093Z,11.73
2019-01-29T00:32:36.489Z,9.40
2019-01-29T00:35:08.778Z,9.37
2019-01-29T00:37:39.153Z,13.23
2019-01-29T00:40:10.478Z,7.17
2019-01-29T00:42:40.744Z,6.00
2019-01-29T00:45:11.451Z,12.63
2019-01-29T00:47:41.919Z,11.00
2019-01-29T00:50:12.902Z,18.13
2019-01-29T00:52:43.054Z,9.63
2019-01-29T00:55:14.044Z,9.27
2019-01-29T00:57:44.540Z,11.20
2019-01-29T01:00:18.409Z,14.20
2019-01-29T01:02:49.254Z,10.07
2019-01-29T01:05:20.197Z,11.13
2019-01-29T01:07:50.895Z,12.43
2019-01-29T01:10:21.904Z,11.17
2019-01-29T01:12:52.232Z,16.10
2019-01-29T01:15:22.668Z,8.77
2019-01-29T01:17:53.088Z,12.13
2019-01-29T01:20:23.443Z,10.87
2019-01-29T01:22:53.959Z,9.63
2019-01-29T01:25:24.551Z,14.17
2019-01-29T01:27:55.015Z,14.50
2019-01-29T01:30:25.701Z,13.63
2019-01-29T01:32:56.090Z,13.37
2019-01-29T01:35:26.547Z,10.73
2019-01-29T01:37:57.171Z,7.17
2019-01-29T01:40:27.510Z,11.53
2019-01-29T01:42:57.821Z,10.60
2019-01-29T01:45:28.176Z,11.77
2019-01-29T01:47:58.429Z,10.53
2019-01-29T01:50:28.975Z,12.40
2019-01-29T01:52:59.697Z,14.93
2019-01-29T01:55:30.215Z,12.23
2019-01-29T01:58:00.553Z,11.67
2019-01-29T02:00:30.936Z,10.17
2019-01-29T02:03:01.193Z,11.50
2019-01-29T02:05:31.822Z,9.40
2019-01-29T02:08:02.367Z,8.87
2019-01-29T02:10:32.670Z,13.87
2019-01-29T02:13:02.988Z,12.90
2019-01-29T02:15:33.322Z,11.77
2019-01-29T02:18:03.665Z,13.90
2019-01-29T02:20:34.023Z,11.20
2019-01-29T02:23:08.200Z,11.73
2019-01-29T02:25:36.398Z,10.67
2019-01-29T02:28:06.823Z,12.43
2019-01-29T02:30:37.104Z,13.30
2019-01-29T02:33:11.059Z,11.67
2019-01-29T02:35:41.419Z,13.60
2019-01-29T02:38:11.895Z,12.07
2019-01-29T02:40:42.205Z,11.03
2019-01-29T02:43:12.591Z,13.73
2019-01-29T02:45:42.839Z,12.77
2019-01-29T02:48:13.127Z,9.23
2019-01-29T02:50:43.568Z,13.37
2019-01-29T02:53:18.499Z,10.80
2019-01-29T02:55:46.201Z,10.97
2019-01-29T02:58:16.858Z,19.50
2019-01-29T03:00:47.109Z,12.13
2019-01-29T03:03:17.522Z,15.37
2019-01-29T03:05:47.805Z,15.70
2019-01-29T03:08:18.680Z,17.73
2019-01-29T03:10:49.017Z,13.83
2019-01-29T03:13:19.432Z,13.57
2019-01-29T03:15:49.719Z,14.07
2019-01-29T03:18:20.181Z,11.50
2019-01-29T03:20:50.571Z,11.07
2019-01-29T03:23:27.380Z,11.57
2019-01-29T03:25:53.153Z,14.13
2019-01-29T03:28:23.443Z,13.13
2019-01-29T03:30:53.694Z,8.43
2019-01-29T03:33:24.081Z,12.13
2019-01-29T03:35:54.413Z,12.43
2019-01-29T03:38:24.887Z,11.93
2019-01-29T03:40:55.159Z,11.47
2019-01-29T03:43:25.485Z,11.77
2019-01-29T03:45:55.848Z,11.80
2019-01-29T03:48:27.317Z,13.43
2019-01-29T03:50:57.637Z,13.03
2019-01-29T03:53:37.569Z,10.97
2019-01-29T03:55:59.903Z,10.03
2019-01-29T03:58:30.669Z,9.70
2019-01-29T04:01:01.049Z,8.07
2019-01-29T04:03:31.490Z,7.80
2019-01-29T04:06:02.005Z,8.83
2019-01-29T04:08:32.451Z,9.83
2019-01-29T04:11:02.809Z,8.43
2019-01-29T04:13:33.466Z,12.77
2019-01-29T04:16:04.113Z,14.63
2019-01-29T04:18:35.945Z,11.90
2019-01-29T04:21:06.410Z,10.27
2019-01-29T04:23:36.850Z,9.17
2019-01-29T04:26:07.295Z,11.37
2019-01-29T04:28:37.537Z,13.80
2019-01-29T04:31:07.879Z,15.80
2019-01-29T04:33:38.177Z,12.70
2019-01-29T04:36:08.585Z,11.33
2019-01-29T04:38:38.896Z,9.83
2019-01-29T04:41:09.385Z,10.90
2019-01-29T04:43:42.916Z,10.93
2019-01-29T04:46:13.225Z,10.40
2019-01-29T04:48:43.672Z,10.00
2019-01-29T04:51:14.189Z,9.10
2019-01-29T04:53:44.493Z,10.87
2019-01-29T04:56:15.074Z,12.17
2019-01-29T04:58:45.813Z,11.30
2019-01-29T05:01:18.401Z,14.53
2019-01-29T05:03:48.589Z,11.40
2019-01-29T05:06:18.947Z,10.70
2019-01-29T05:08:49.578Z,14.73
2019-01-29T05:11:20.021Z,11.33
2019-01-29T05:13:50.381Z,12.17
2019-01-29T05:16:21.034Z,11.80
2019-01-29T05:18:51.515Z,7.13
2019-01-29T05:21:21.913Z,11.00
2019-01-29T05:23:52.498Z,10.80
2019-01-29T05:26:23.110Z,10.33
2019-01-29T05:28:53.478Z,10.53
2019-01-29T05:31:23.699Z,11.23
2019-01-29T05:33:54.264Z,10.37
2019-01-29T05:36:24.778Z,8.90
2019-01-29T05:38:55.052Z,12.40
2019-01-29T05:41:25.371Z,8.07
2019-01-29T05:43:55.633Z,8.77
2019-01-29T05:46:26.278Z,12.93
2019-01-29T05:48:57.862Z,9.67
2019-01-29T05:51:28.289Z,6.00
2019-01-29T05:53:58.591Z,11.73
2019-01-29T05:56:29.330Z,13.43
2019-01-29T05:58:59.931Z,13.70
2019-01-29T06:01:30.324Z,10.60
2019-01-29T06:04:00.742Z,10.90
2019-01-29T06:06:31.081Z,8.87
2019-01-29T06:09:01.412Z,9.40
2019-01-29T06:11:31.638Z,8.10
2019-01-29T06:14:01.968Z,11.33
2019-01-29T06:16:32.378Z,9.37
2019-01-29T06:19:02.669Z,8.93
2019-01-29T06:21:32.995Z,11.10
2019-01-29T06:24:03.193Z,14.30
2019-01-29T06:26:33.444Z,11.50
2019-01-29T06:29:03.686Z,13.00
2019-01-29T06:31:33.834Z,10.97
2019-01-29T06:34:04.091Z,12.80
2019-01-29T06:36:35.673Z,13.33
2019-01-29T06:39:08.303Z,13.30
2019-01-29T06:41:57.388Z,12.20
2019-01-29T06:44:27.518Z,12.70
2019-01-29T06:46:57.737Z,9.70
2019-01-29T06:49:27.998Z,15.80
2019-01-29T06:51:58.186Z,13.27
2019-01-29T06:54:33.990Z,9.43
2019-01-29T06:57:00.918Z,11.13
2019-01-29T06:59:31.545Z,10.93
2019-01-29T07:02:03.470Z,9.33
2019-01-29T07:04:33.954Z,15.07
2019-01-29T07:07:04.975Z,12.23
2019-01-29T07:09:35.687Z,10.60
2019-01-29T07:12:06.862Z,10.47
2019-01-29T07:14:38.086Z,12.70
2019-01-29T07:17:33.740Z,10.30
2019-01-29T07:20:07.329Z,10.30
2019-01-29T07:22:38.738Z,13.40
2019-01-29T07:25:11.834Z,8.10
2019-01-29T07:27:43.058Z,12.93
2019-01-29T07:30:15.667Z,13.03
2019-01-29T07:32:46.689Z,10.97
2019-01-29T07:35:18.133Z,7.87
2019-01-29T07:37:49.424Z,12.23
2019-01-29T07:40:20.628Z,12.97
2019-01-29T07:42:51.859Z,13.00
2019-01-29T07:45:23.124Z,11.37
2019-01-29T07:47:54.262Z,15.07
2019-01-29T07:50:25.280Z,14.57
2019-01-29T07:52:56.328Z,16.40
2019-01-29T07:55:29.672Z,12.97
2019-01-29T07:58:00.577Z,12.80
2019-01-29T08:00:31.750Z,17.10
2019-01-29T08:03:02.334Z,15.20
2019-01-29T08:05:33.261Z,16.60
2019-01-29T08:08:04.142Z,16.63
2019-01-29T08:10:35.223Z,15.90
2019-01-29T08:13:06.524Z,14.40
2019-01-29T08:15:38.199Z,17.60
2019-01-29T08:18:09.977Z,16.00
2019-01-29T08:20:41.122Z,14.07
2019-01-29T08:23:12.177Z,19.50
2019-01-29T08:25:47.831Z,17.93
2019-01-29T08:28:16.168Z,17.40
2019-01-29T08:30:47.211Z,19.20
2019-01-29T08:33:18.324Z,12.07
2019-01-29T08:35:49.220Z,17.13
2019-01-29T08:38:20.277Z,12.47
2019-01-29T08:40:51.222Z,16.23
2019-01-29T08:43:22.275Z,9.33
2019-01-29T08:45:54.291Z,13.60
2019-01-29T08:48:25.410Z,17.00
2019-01-29T08:50:56.462Z,11.30
2019-01-29T08:53:26.902Z,12.20
2019-01-29T08:55:57.610Z,13.17
2019-01-29T08:58:28.138Z,10.13
2019-01-29T09:00:58.831Z,17.43
2019-01-29T09:03:29.385Z,12.03
2019-01-29T09:06:00.048Z,10.37
2019-01-29T09:08:30.630Z,14.77
2019-01-29T09:11:01.196Z,11.80
2019-01-29T09:13:31.872Z,11.47
2019-01-29T09:16:02.521Z,15.33
2019-01-29T09:18:33.202Z,8.23
2019-01-29T09:21:04.103Z,14.70
2019-01-29T09:23:34.842Z,14.23
2019-01-29T09:26:05.620Z,14.43
2019-01-29T09:28:39.176Z,10.10
2019-01-29T09:31:09.850Z,16.57
2019-01-29T09:33:40.477Z,11.23
2019-01-29T09:36:11.077Z,9.13
2019-01-29T09:38:41.619Z,10.87
2019-01-29T09:41:12.329Z,10.50
2019-01-29T09:43:43.043Z,9.67
2019-01-29T09:46:13.734Z,10.63
2019-01-29T09:48:44.272Z,11.50
2019-01-29T09:51:14.829Z,12.53
2019-01-29T09:53:45.523Z,13.43
2019-01-29T09:56:16.097Z,14.03
2019-01-29T09:58:46.653Z,11.83
2019-01-29T10:01:17.204Z,13.10
2019-01-29T10:03:47.974Z,17.90
2019-01-29T10:06:18.629Z,9.67
2019-01-29T10:08:49.021Z,11.83
2019-01-29T10:11:19.677Z,8.57
2019-01-29T10:13:50.427Z,10.90
2019-01-29T10:16:21.192Z,8.53
2019-01-29T10:18:51.767Z,19.03
2019-01-29T10:21:22.374Z,12.03
2019-01-29T10:23:53.007Z,8.57
2019-01-29T10:26:24.110Z,9.27
2019-01-29T10:28:54.739Z,13.97
2019-01-29T10:31:25.540Z,18.97
2019-01-29T10:33:56.269Z,11.50
2019-01-29T10:36:26.749Z,12.07
2019-01-29T10:38:57.355Z,10.83
2019-01-29T10:41:27.945Z,12.53
2019-01-29T10:43:58.632Z,15.70
2019-01-29T10:46:29.123Z,13.07
2019-01-29T10:48:59.481Z,12.83
2019-01-29T10:51:30.125Z,13.90
2019-01-29T10:54:00.641Z,11.70
2019-01-29T10:56:31.718Z,16.80
2019-01-29T10:59:02.413Z,14.57
2019-01-29T11:01:33.019Z,14.90
2019-01-29T11:04:04.107Z,11.93
2019-01-29T11:06:35.187Z,10.93
2019-01-29T11:09:11.661Z,13.13
2019-01-29T11:11:42.320Z,10.67
2019-01-29T11:14:13.189Z,15.83
2019-01-29T11:16:43.861Z,11.03
2019-01-29T11:19:14.701Z,11.37
2019-01-29T11:21:45.811Z,12.13
2019-01-29T11:24:16.541Z,13.63
2019-01-29T11:26:47.084Z,9.13
2019-01-29T11:29:17.987Z,9.90
2019-01-29T11:31:48.883Z,12.07
2019-01-29T11:34:19.448Z,14.90
2019-01-29T11:36:50.497Z,15.10
2019-01-29T11:39:21.299Z,10.83
2019-01-29T11:41:51.724Z,9.37
2019-01-29T11:44:22.559Z,12.70
2019-01-29T11:46:53.249Z,13.63
2019-01-29T11:49:24.067Z,11.63
2019-01-29T11:51:56.145Z,14.87
2019-01-29T11:54:26.694Z,17.57
2019-01-29T11:56:57.373Z,14.07
2019-01-29T11:59:28.657Z,13.60
2019-01-29T12:01:59.251Z,18.23
2019-01-29T12:04:30.017Z,15.97
2019-01-29T12:07:00.613Z,20.50
2019-01-29T12:09:31.040Z,16.60
2019-01-29T12:12:02.821Z,16.27
2019-01-29T12:14:34.149Z,22.97
2019-01-29T12:17:05.458Z,20.63
2019-01-29T12:19:36.373Z,19.13
2019-01-29T12:22:06.887Z,20.73
2019-01-29T12:24:37.697Z,17.97
2019-01-29T12:27:08.857Z,20.63
2019-01-29T12:29:39.265Z,23.67
2019-01-29T12:32:09.839Z,23.70
2019-01-29T12:34:40.845Z,20.73
2019-01-29T12:37:11.319Z,24.93
2019-01-29T12:39:42.072Z,25.07
2019-01-29T12:42:12.955Z,24.13
2019-01-29T12:44:43.839Z,28.17
2019-01-29T12:47:14.197Z,32.50
2019-01-29T12:49:48.227Z,26.23
2019-01-29T12:52:25.438Z,29.17
2019-01-29T12:54:56.244Z,24.87
2019-01-29T12:57:26.811Z,26.37
2019-01-29T12:59:57.814Z,26.50
2019-01-29T13:02:28.543Z,31.63
2019-01-29T13:04:59.032Z,29.23
2019-01-29T13:07:31.777Z,25.93
2019-01-29T13:10:02.173Z,24.90
2019-01-29T13:12:32.712Z,25.00
2019-01-29T13:15:03.450Z,23.80
2019-01-29T13:17:34.175Z,20.63
2019-01-29T13:20:08.299Z,21.10
2019-01-29T13:22:38.904Z,26.00
2019-01-29T13:25:10.442Z,19.07
2019-01-29T13:27:41.096Z,23.43
2019-01-29T13:30:21.275Z,24.53
2019-01-29T13:32:52.334Z,23.03
2019-01-29T13:35:24.212Z,29.67
2019-01-29T13:37:55.383Z,26.67
2019-01-29T13:40:26.536Z,25.07
2019-01-29T13:42:57.614Z,22.93
2019-01-29T13:45:28.294Z,24.03
2019-01-29T13:48:00.470Z,27.90
2019-01-29T13:50:34.649Z,25.60
2019-01-29T13:53:05.926Z,26.90
2019-01-29T13:55:39.216Z,23.97
2019-01-29T13:58:10.046Z,23.27
2019-01-29T14:00:41.832Z,23.57
2019-01-29T14:03:13.130Z,21.93
2019-01-29T14:05:44.032Z,24.33
2019-01-29T14:08:15.058Z,24.90
2019-01-29T14:10:46.045Z,27.73
2019-01-29T14:13:18.515Z,22.43
2019-01-29T14:16:00.700Z,30.00
2019-01-29T14:18:32.988Z,22.80
2019-01-29T14:21:03.581Z,28.13
2019-01-29T14:23:35.218Z,26.40
2019-01-29T14:26:07.030Z,19.00
2019-01-29T14:28:38.024Z,27.67
2019-01-29T14:31:08.858Z,21.93
2019-01-29T14:33:39.760Z,20.00
2019-01-29T14:36:16.450Z,27.07
2019-01-29T14:39:26.745Z,30.60
2019-01-29T14:41:57.361Z,17.30
2019-01-29T14:44:31.660Z,18.40
2019-01-29T14:47:02.431Z,19.73
2019-01-29T14:49:34.666Z,18.10
2019-01-29T14:52:05.598Z,19.67
2019-01-29T14:54:36.126Z,16.13
2019-01-29T14:57:06.847Z,18.57
2019-01-29T14:59:38.211Z,27.30
2019-01-29T15:02:09.234Z,16.53
2019-01-29T15:04:40.026Z,20.03
2019-01-29T15:07:10.850Z,19.80
2019-01-29T15:09:43.446Z,19.23
2019-01-29T15:12:14.187Z,18.87
2019-01-29T15:14:46.680Z,17.93
2019-01-29T15:17:32.475Z,18.20
2019-01-29T15:20:03.310Z,18.73
2019-01-29T15:22:34.270Z,14.87
2019-01-29T15:25:05.614Z,17.37
2019-01-29T15:27:36.592Z,21.87
2019-01-29T15:30:16.070Z,14.90
2019-01-29T15:32:48.756Z,15.30
2019-01-29T15:35:19.645Z,17.17
2019-01-29T15:37:50.488Z,17.97
2019-01-29T15:40:21.449Z,15.80
2019-01-29T15:42:56.035Z,16.03
2019-01-29T15:45:26.895Z,22.33
2019-01-29T15:47:57.680Z,15.23
2019-01-29T15:50:30.912Z,13.80
2019-01-29T15:53:02.697Z,16.13
2019-01-29T15:55:33.497Z,19.00
2019-01-29T15:58:05.742Z,17.03
2019-01-29T16:00:36.603Z,17.57
2019-01-29T16:03:07.426Z,16.00
2019-01-29T16:05:39.299Z,17.07
2019-01-29T16:08:10.088Z,16.27
2019-01-29T16:10:43.639Z,18.63
2019-01-29T16:13:13.925Z,16.30
2019-01-29T16:15:44.335Z,18.97
2019-01-29T16:18:18.185Z,16.50
2019-01-29T16:20:48.346Z,17.37
2019-01-29T16:23:18.640Z,14.50
2019-01-29T16:25:48.884Z,25.63
2019-01-29T16:28:19.095Z,16.27
2019-01-29T16:30:50.538Z,21.47
2019-01-29T16:33:20.777Z,22.73
2019-01-29T16:35:51.066Z,19.77
2019-01-29T16:38:21.367Z,25.40
2019-01-29T16:41:00.106Z,23.87
2019-01-29T16:43:24.041Z,19.80
2019-01-29T16:45:54.455Z,22.07
2019-01-29T16:48:24.925Z,20.97
2019-01-29T16:50:55.314Z,20.23
2019-01-29T16:53:25.740Z,14.20
2019-01-29T16:55:56.333Z,15.13
2019-01-29T16:58:26.641Z,16.87
2019-01-29T17:00:57.538Z,16.80
2019-01-29T17:03:27.786Z,15.57
2019-01-29T17:05:58.334Z,14.40
2019-01-29T17:08:28.787Z,17.63
2019-01-29T17:10:59.108Z,14.77
2019-01-29T17:13:29.383Z,19.30
2019-01-29T17:15:59.915Z,12.63
2019-01-29T17:18:30.207Z,17.37
2019-01-29T17:21:00.513Z,17.63
2019-01-29T17:23:32.184Z,20.27
2019-01-29T17:26:02.485Z,15.00
2019-01-29T17:28:32.782Z,19.13
2019-01-29T17:31:03.058Z,13.70
2019-01-29T17:33:33.353Z,16.93
2019-01-29T17:36:05.525Z,19.73
2019-01-29T17:38:44.258Z,16.13
2019-01-29T17:41:09.882Z,28.17
2019-01-29T17:43:40.549Z,20.47
2019-01-29T17:46:11.105Z,18.17
2019-01-29T17:48:41.369Z,18.50
2019-01-29T17:51:11.875Z,27.60
2019-01-29T17:53:44.533Z,23.90
2019-01-29T17:56:14.836Z,16.63
2019-01-29T17:58:45.507Z,16.70
2019-01-29T18:01:15.810Z,25.67
2019-01-29T18:03:46.255Z,16.30
2019-01-29T18:06:16.627Z,19.90
2019-01-29T18:08:49.928Z,24.57
2019-01-29T18:11:18.831Z,17.77
2019-01-29T18:13:49.185Z,21.20
2019-01-29T18:16:19.951Z,20.83
2019-01-29T18:18:50.272Z,20.90
2019-01-29T18:21:23.595Z,16.93
2019-01-29T18:23:55.807Z,16.73
2019-01-29T18:26:26.157Z,15.17
2019-01-29T18:28:58.488Z,14.00
2019-01-29T18:31:29.044Z,17.20
2019-01-29T18:33:59.466Z,14.77
2019-01-29T18:36:33.101Z,15.53
2019-01-29T18:39:05.181Z,20.90
2019-01-29T18:41:35.686Z,28.93
2019-01-29T18:44:06.507Z,16.40
2019-01-29T18:46:37.141Z,13.37
2019-01-29T18:49:07.639Z,22.77
2019-01-29T18:51:38.101Z,16.47
2019-01-29T18:54:09.736Z,20.20
2019-01-29T18:56:40.431Z,14.73
2019-01-29T18:59:11.082Z,20.67
2019-01-29T19:01:42.209Z,22.57
2019-01-29T19:04:12.661Z,18.33
2019-01-29T19:06:43.136Z,21.23
2019-01-29T19:09:13.766Z,13.53
2019-01-29T19:11:44.072Z,13.40
2019-01-29T19:14:14.498Z,16.97
2019-01-29T19:16:44.862Z,13.93
2019-01-29T19:19:15.154Z,14.83
2019-01-29T19:21:45.495Z,19.60
2019-01-29T19:24:15.839Z,9.53
2019-01-29T19:26:46.475Z,14.97
2019-01-29T19:29:17.146Z,13.70
2019-01-29T19:31:47.596Z,11.10
2019-01-29T19:34:17.961Z,14.17
2019-01-29T19:36:48.293Z,12.63
2019-01-29T19:39:18.723Z,18.57
2019-01-29T19:41:51.000Z,14.23
2019-01-29T19:44:21.397Z,11.57
2019-01-29T19:46:51.698Z,9.23
2019-01-29T19:49:22.249Z,10.10
2019-01-29T19:51:52.775Z,12.77
2019-01-29T19:54:23.090Z,11.97
2019-01-29T19:56:53.444Z,11.40
2019-01-29T19:59:23.848Z,10.60
2019-01-29T20:01:54.690Z,11.97
2019-01-29T20:04:24.836Z,14.90
2019-01-29T20:06:55.211Z,15.43
2019-01-29T20:09:30.107Z,16.20
2019-01-29T20:12:01.333Z,16.23
2019-01-29T20:14:32.128Z,14.30
2019-01-29T20:17:02.628Z,15.30
2019-01-29T20:19:33.050Z,12.83
2019-01-29T20:22:03.409Z,10.50
2019-01-29T20:24:35.061Z,12.77
2019-01-29T20:27:05.399Z,14.90
2019-01-29T20:29:37.618Z,9.50
2019-01-29T20:32:07.904Z,11.93
2019-01-29T20:34:38.591Z,12.57
2019-01-29T20:37:09.058Z,12.13
2019-01-29T20:39:39.621Z,13.53
2019-01-29T20:42:11.601Z,12.63
2019-01-29T20:44:42.151Z,16.17
2019-01-29T20:47:12.524Z,11.87
2019-01-29T20:49:42.791Z,16.37
2019-01-29T20:52:13.260Z,12.47
2019-01-29T20:54:43.622Z,11.63
2019-01-29T20:57:13.922Z,13.10
2019-01-29T20:59:44.242Z,9.77
2019-01-29T21:02:14.839Z,19.43
2019-01-29T21:04:45.344Z,13.07
2019-01-29T21:07:15.854Z,14.77
2019-01-29T21:09:47.729Z,10.13
2019-01-29T21:12:20.045Z,11.97
2019-01-29T21:14:49.837Z,15.27
2019-01-29T21:17:20.293Z,12.90
2019-01-29T21:19:50.571Z,12.33
2019-01-29T21:22:20.917Z,12.47
2019-01-29T21:24:51.129Z,9.97
2019-01-29T21:27:21.446Z,12.87
2019-01-29T21:29:51.665Z,12.67
2019-01-29T21:32:22.271Z,16.77
2019-01-29T21:34:52.528Z,14.63
2019-01-29T21:37:23.080Z,9.97
2019-01-29T21:39:53.404Z,10.23
2019-01-29T21:42:23.810Z,11.57
2019-01-29T21:44:54.156Z,9.90
2019-01-29T21:47:24.651Z,15.50
2019-01-29T21:49:55.129Z,13.70
2019-01-29T21:52:25.605Z,13.73
2019-01-29T21:54:55.902Z,14.43
2019-01-29T21:57:26.420Z,14.17
2019-01-29T21:59:57.798Z,15.50
2019-01-29T22:02:28.456Z,12.10
2019-01-29T22:04:58.738Z,12.10
2019-01-29T22:07:29.278Z,15.97
2019-01-29T22:09:59.800Z,13.17
2019-01-29T22:12:30.238Z,12.97
2019-01-29T22:15:00.500Z,12.50
2019-01-29T22:17:30.754Z,13.60
2019-01-29T22:20:01.988Z,9.47
2019-01-29T22:22:32.625Z,11.30
2019-01-29T22:25:03.263Z,10.57
2019-01-29T22:30:31.760Z,7.83
2019-01-29T22:33:02.356Z,12.37
2019-01-29T22:35:32.602Z,12.47
2019-01-29T22:38:02.910Z,12.17
2019-01-29T22:40:33.710Z,11.70
2019-01-29T22:43:04.075Z,12.40
2019-01-29T22:45:34.642Z,12.37
2019-01-29T22:48:06.911Z,11.83
2019-01-29T22:50:41.816Z,9.60
2019-01-29T22:53:12.366Z,10.90
2019-01-29T22:55:42.604Z,11.17
2019-01-29T22:58:14.310Z,10.77
2019-01-29T23:01:08.457Z,14.60
2019-01-29T23:03:44.865Z,11.27
2019-01-29T23:06:50.965Z,8.43
2019-01-29T23:09:21.294Z,11.90
2019-01-29T23:11:51.778Z,13.87
2019-01-29T23:14:22.150Z,12.03
2019-01-29T23:16:52.423Z,16.03
2019-01-29T23:19:22.776Z,11.70
2019-01-29T23:21:52.987Z,12.67
2019-01-29T23:24:23.405Z,11.23
2019-01-29T23:26:53.704Z,15.70
2019-01-29T23:29:24.078Z,13.17
2019-01-29T23:31:54.476Z,10.50
2019-01-29T23:34:25.100Z,12.70
2019-01-29T23:36:55.466Z,12.03
2019-01-29T23:39:25.785Z,11.17
2019-01-29T23:41:56.117Z,13.00
2019-01-29T23:44:26.743Z,11.83
2019-01-29T23:46:57.177Z,11.47
2019-01-29T23:49:27.403Z,12.40
2019-01-29T23:51:57.770Z,11.23
2019-01-29T23:54:28.049Z,12.30
2019-01-29T23:56:58.319Z,11.13
2019-01-29T23:59:28.592Z,13.03
